Terminal Aerodrome Forecast
Issued by NWS Wichita, KS

Home | Current Version | Previous Version | Text Only | Print | Product List | Glossary On
Versions: 1 2 3 4 5 6 7 8 9 10 11 12 13 14
000
FTUS43 KICT 261133
TAFICT
TAF
KICT 261133Z 2612/2712 33013KT P6SM SCT060 OVC100
     FM261600 32020G30KT P6SM SCT050 BKN080
     FM270000 36007KT P6SM SKC=

USA.gov is the U.S. government's official web portal to all federal, state and local government web resources and services.